createdAt,value
2023-03-29T00:04:34.838Z,75.51
2023-03-29T00:09:50.813Z,76.33
2023-03-29T00:14:48.363Z,76.32
2023-03-29T00:19:51.256Z,76.57
2023-03-29T00:24:49.933Z,77.03
2023-03-29T00:29:46.853Z,77.09
2023-03-29T00:34:48.398Z,77.65
2023-03-29T00:39:45.451Z,78.62
2023-03-29T00:45:03.219Z,79.18
2023-03-29T00:50:04.070Z,79.77
2023-03-29T00:55:10.270Z,79.82
2023-03-29T01:00:28.437Z,80.19
2023-03-29T01:05:34.203Z,80.29
2023-03-29T01:10:34.531Z,80.45
2023-03-29T01:15:30.897Z,79.85
2023-03-29T01:20:36.364Z,79.93
2023-03-29T01:25:54.525Z,79.98
2023-03-29T01:36:36.538Z,79.43
2023-03-29T01:42:04.290Z,79.56
2023-03-29T01:47:22.638Z,79.31
2023-03-29T01:52:32.690Z,79.55
2023-03-29T01:57:46.978Z,79.31
2023-03-29T02:03:07.042Z,79.45
2023-03-29T02:08:11.453Z,79.20
2023-03-29T02:13:19.092Z,78.98
2023-03-29T02:18:22.980Z,79.00
2023-03-29T02:24:01.828Z,78.94
2023-03-29T02:28:57.829Z,78.45
2023-03-29T02:33:59.202Z,78.48
2023-03-29T02:39:12.550Z,78.38
2023-03-29T02:44:25.106Z,78.56
2023-03-29T02:49:43.777Z,77.90
2023-03-29T02:54:48.193Z,77.54
2023-03-29T02:59:48.553Z,76.65
2023-03-29T03:04:46.651Z,76.12
2023-03-29T03:09:45.159Z,76.31
2023-03-29T03:15:25.056Z,76.55
2023-03-29T03:20:42.452Z,77.07
2023-03-29T03:25:45.971Z,75.93
2023-03-29T03:30:56.239Z,76.62
2023-03-29T03:36:14.249Z,76.57
2023-03-29T03:41:16.698Z,77.33
2023-03-29T03:46:39.986Z,77.59
2023-03-29T03:51:45.942Z,77.16
2023-03-29T03:56:44.984Z,77.46
2023-03-29T04:02:35.801Z,77.40
2023-03-29T04:07:38.007Z,77.76
2023-03-29T04:13:07.796Z,77.53
2023-03-29T04:19:09.238Z,77.18
2023-03-29T04:24:41.462Z,76.88
2023-03-29T04:30:11.275Z,76.66
2023-03-29T04:36:12.179Z,75.75
2023-03-29T04:41:19.709Z,75.78
2023-03-29T04:46:49.119Z,75.39
2023-03-29T04:52:16.207Z,75.29
2023-03-29T04:57:28.789Z,75.10
2023-03-29T05:02:34.080Z,74.74
2023-03-29T05:07:53.175Z,74.54
2023-03-29T05:12:57.354Z,74.39
2023-03-29T05:18:13.768Z,73.61
2023-03-29T05:23:08.588Z,73.67
2023-03-29T05:28:44.453Z,73.07
2023-03-29T05:34:04.762Z,72.93
2023-03-29T05:45:12.940Z,71.54
2023-03-29T05:50:30.063Z,71.19
2023-03-29T05:55:32.808Z,70.20
2023-03-29T06:00:42.577Z,69.84
2023-03-29T06:12:11.155Z,68.59
2023-03-29T06:17:55.778Z,68.15
2023-03-29T06:23:49.562Z,68.93
2023-03-29T06:29:00.752Z,69.11
2023-03-29T06:34:27.323Z,68.83
2023-03-29T06:40:07.926Z,66.72
2023-03-29T06:45:24.340Z,67.03
2023-03-29T06:51:55.111Z,66.41
2023-03-29T06:57:34.943Z,64.85
2023-03-29T07:02:47.228Z,63.69
2023-03-29T07:08:11.586Z,62.65
2023-03-29T07:13:30.269Z,62.05
2023-03-29T07:18:28.841Z,61.12
2023-03-29T07:23:52.599Z,60.68
2023-03-29T07:28:50.856Z,60.09
2023-03-29T07:33:46.735Z,60.14
2023-03-29T07:38:46.094Z,59.49
2023-03-29T07:43:53.520Z,58.18
2023-03-29T07:49:22.719Z,56.39
2023-03-29T07:54:37.702Z,53.31
2023-03-29T08:00:15.551Z,52.03
2023-03-29T08:05:23.230Z,51.58
2023-03-29T08:10:41.167Z,51.81
2023-03-29T08:15:53.401Z,51.53
2023-03-29T08:21:03.569Z,46.40
2023-03-29T08:26:03.828Z,45.48
2023-03-29T08:31:05.960Z,44.02
2023-03-29T08:36:00.034Z,44.20
2023-03-29T08:41:00.335Z,45.89
2023-03-29T08:46:17.939Z,42.65
2023-03-29T08:51:26.089Z,39.95
2023-03-29T08:56:34.349Z,38.64
2023-03-29T09:01:47.409Z,39.46
2023-03-29T09:06:50.402Z,37.90
2023-03-29T09:12:12.548Z,34.00
2023-03-29T09:18:00.799Z,32.88
2023-03-29T09:23:55.717Z,33.87
2023-03-29T09:29:53.784Z,38.20
2023-03-29T09:35:31.168Z,40.53
2023-03-29T09:41:11.350Z,43.68
2023-03-29T09:46:35.783Z,39.80
2023-03-29T09:53:06.024Z,41.40
2023-03-29T09:58:18.434Z,45.16
2023-03-29T10:10:07.052Z,51.44
2023-03-29T10:20:41.061Z,45.96
2023-03-29T10:32:16.663Z,49.47
2023-03-29T10:37:33.802Z,48.14
2023-03-29T10:42:53.691Z,47.79
2023-03-29T10:48:31.118Z,44.27
2023-03-29T11:00:05.843Z,38.39
2023-03-29T11:05:39.080Z,37.28
2023-03-29T11:19:04.131Z,32.53
2023-03-29T11:24:36.087Z,31.49
2023-03-29T11:36:12.528Z,26.73
2023-03-29T11:42:26.317Z,26.89
2023-03-29T11:48:17.903Z,26.29
2023-03-29T11:54:17.984Z,28.14
2023-03-29T11:59:30.480Z,29.95
2023-03-29T12:04:51.145Z,29.64
2023-03-29T12:10:13.771Z,29.84
2023-03-29T12:16:02.871Z,29.61
2023-03-29T12:21:44.410Z,29.47
2023-03-29T12:34:34.563Z,28.33
2023-03-29T12:40:48.675Z,30.45
2023-03-29T12:46:25.174Z,28.70
2023-03-29T12:58:13.305Z,29.25
2023-03-29T13:10:40.584Z,24.25
2023-03-29T13:17:18.487Z,25.19
2023-03-29T13:23:03.947Z,24.25
2023-03-29T14:24:12.954Z,25.54
2023-03-29T14:29:53.613Z,25.21
2023-03-29T14:34:56.467Z,22.76
2023-03-29T14:53:04.274Z,18.02
2023-03-29T15:53:15.061Z,23.78
2023-03-29T16:06:13.857Z,25.20
2023-03-29T16:17:29.141Z,25.65
2023-03-29T16:18:09.229Z,26.54
2023-03-29T17:46:53.204Z,32.72
2023-03-29T17:53:03.353Z,33.65
2023-03-29T18:05:13.472Z,34.39
2023-03-29T18:35:51.017Z,37.24
2023-03-29T18:46:50.904Z,36.93
2023-03-29T18:52:21.904Z,37.34
2023-03-29T18:57:49.993Z,37.22
2023-03-29T19:03:59.615Z,37.53
2023-03-29T19:11:06.657Z,37.49
2023-03-29T19:16:52.898Z,37.49
2023-03-29T19:22:32.467Z,37.49
2023-03-29T19:40:43.204Z,36.72
2023-03-29T19:52:25.035Z,38.00
2023-03-29T19:58:09.964Z,36.51
2023-03-29T20:10:30.422Z,35.86
2023-03-29T20:16:32.860Z,35.97
2023-03-29T20:22:33.310Z,35.57
2023-03-29T20:28:41.572Z,35.51
2023-03-29T20:34:26.173Z,35.91
2023-03-29T20:40:46.290Z,35.70
2023-03-29T20:59:48.031Z,36.57
2023-03-29T21:18:40.983Z,38.24
2023-03-29T21:29:59.620Z,39.79
2023-03-29T21:41:01.456Z,42.55
2023-03-29T21:46:19.433Z,42.38
2023-03-29T21:52:11.301Z,42.68
2023-03-29T21:57:59.409Z,40.99
2023-03-29T22:03:40.571Z,42.92
2023-03-29T22:14:55.823Z,43.04
2023-03-29T22:20:15.233Z,41.11
2023-03-29T22:25:59.562Z,39.18
2023-03-29T22:31:25.309Z,39.38
2023-03-29T22:36:36.399Z,39.40
2023-03-29T22:41:38.151Z,39.96
2023-03-29T22:46:48.018Z,40.13
2023-03-29T22:51:51.025Z,39.75
2023-03-29T22:57:00.711Z,40.94
2023-03-29T23:07:48.957Z,40.82
2023-03-29T23:13:09.198Z,41.61
2023-03-29T23:18:29.254Z,41.59
2023-03-29T23:28:42.590Z,41.72
2023-03-29T23:33:43.853Z,42.09
2023-03-29T23:38:48.903Z,40.97
2023-03-29T23:43:49.048Z,41.34
2023-03-29T23:48:53.573Z,41.41
2023-03-29T23:54:25.438Z,41.36
